Time;durP1;ratioP1;P1;durP2;ratioP2;P2;SDS_P1;SDS_P2;PMS_P1;PMS_P2;Temp;Humidity;BMP_temperature;BMP_pressure;BME280_temperature;BME280_humidity;BME280_pressure;Samples;Min_cycle;Max_cycle;Signal;HPM_P1;HPM_P2
2023/10/28 00:01:35;;;;;;;16.55;8.32;;;;;;;0.18;85.98;97506.25;5035630;28;20048;-59
2023/10/28 00:04:02;;;;;;;15.93;7.93;;;;;;;0.17;85.57;97510.63;5034993;28;20100;-60
2023/10/28 00:06:29;;;;;;;13.80;8.45;;;;;;;0.14;85.69;97502.47;5035267;28;20123;-59
2023/10/28 00:08:55;;;;;;;15.32;7.57;;;;;;;0.19;86.14;97503.41;5034860;28;20495;-60
2023/10/28 00:11:21;;;;;;;17.17;8.60;;;;;;;0.19;85.78;97513.03;5035142;28;20041;-59
2023/10/28 00:13:46;;;;;;;13.68;7.93;;;;;;;0.20;85.68;97504.22;5035188;28;20046;-60
2023/10/28 00:16:12;;;;;;;17.52;8.35;;;;;;;0.23;86.82;97499.34;5035106;28;20532;-61
2023/10/28 00:18:39;;;;;;;17.83;8.40;;;;;;;0.30;86.59;97496.69;5034611;28;20083;-60
2023/10/28 00:21:07;;;;;;;15.38;8.63;;;;;;;0.24;85.52;97487.16;5033430;28;20056;-59
2023/10/28 00:23:34;;;;;;;17.90;8.23;;;;;;;0.22;85.62;97486.56;5033718;28;20406;-59
2023/10/28 00:26:03;;;;;;;15.20;7.88;;;;;;;0.16;85.38;97477.78;5035063;28;20437;-60
2023/10/28 00:28:32;;;;;;;19.57;8.30;;;;;;;0.09;85.90;97471.88;5035300;28;20490;-60
2023/10/28 00:31:00;;;;;;;11.35;7.90;;;;;;;0.12;86.34;97491.47;5034758;28;20273;-59
2023/10/28 00:33:26;;;;;;;22.73;8.85;;;;;;;0.15;86.58;97491.06;5033517;28;20475;-59
2023/10/28 00:35:51;;;;;;;21.98;9.43;;;;;;;0.16;86.56;97500.44;5033470;28;20072;-60
2023/10/28 00:38:17;;;;;;;16.83;8.82;;;;;;;0.15;85.55;97486.63;5034558;28;20053;-60
2023/10/28 00:40:43;;;;;;;18.55;8.80;;;;;;;0.06;85.83;97479.28;5034459;28;20052;-61
2023/10/28 00:43:10;;;;;;;17.55;8.90;;;;;;;0.06;85.96;97474.91;5031334;28;20554;-60
2023/10/28 00:45:40;;;;;;;15.57;8.63;;;;;;;0.01;86.37;97469.53;5017021;28;20048;-60
2023/10/28 00:48:06;;;;;;;19.38;9.52;;;;;;;0.02;86.68;97467.72;5016846;28;20091;-59
2023/10/28 00:50:32;;;;;;;16.83;9.30;;;;;;;0.02;86.27;97470.34;5033855;28;20499;-60
2023/10/28 00:52:59;;;;;;;15.40;8.88;;;;;;;0.05;86.20;97459.47;5032953;28;20042;-58
2023/10/28 00:55:27;;;;;;;14.43;8.27;;;;;;;-0.04;86.00;97464.97;5016404;28;20068;-60
2023/10/28 00:57:53;;;;;;;14.07;8.18;;;;;;;-0.04;86.41;97459.75;5016717;28;20045;-60
2023/10/28 01:00:20;;;;;;;18.75;8.60;;;;;;;-0.02;85.91;97459.56;5032897;28;20045;-61
2023/10/28 01:02:46;;;;;;;15.55;7.95;;;;;;;-0.08;86.27;97458.63;5033882;28;20502;-59
2023/10/28 01:05:13;;;;;;;24.88;8.73;;;;;;;-0.09;86.09;97456.22;5033893;28;20065;-59
2023/10/28 01:07:49;;;;;;;16.70;7.93;;;;;;;-0.13;86.20;97445.44;5032705;28;20053;-58
2023/10/28 01:10:29;;;;;;;14.95;8.30;;;;;;;-0.14;86.21;97456.88;5034182;28;20491;-58
2023/10/28 01:12:55;;;;;;;14.02;8.00;;;;;;;-0.20;86.81;97460.34;5033947;28;20049;-60
2023/10/28 01:15:22;;;;;;;12.85;7.88;;;;;;;-0.13;86.55;97452.47;5032808;28;20033;-59
2023/10/28 01:17:48;;;;;;;14.07;7.47;;;;;;;-0.10;86.57;97457.22;5033570;28;20072;-58
2023/10/28 01:20:14;;;;;;;14.65;7.70;;;;;;;-0.19;86.40;97458.53;5031550;28;20084;-60
2023/10/28 01:22:39;;;;;;;15.32;7.75;;;;;;;-0.22;86.44;97462.34;5033620;28;20076;-58
2023/10/28 01:25:06;;;;;;;15.18;7.47;;;;;;;-0.19;86.24;97467.13;5033450;28;20037;-59
2023/10/28 01:27:32;;;;;;;14.20;7.57;;;;;;;-0.15;86.69;97473.50;4999491;28;20075;-59
2023/10/28 01:29:58;;;;;;;12.55;7.45;;;;;;;-0.12;86.39;97467.06;5033706;28;20046;-61
2023/10/28 01:32:24;;;;;;;17.65;7.88;;;;;;;-0.18;86.41;97463.50;5032157;28;20086;-60
2023/10/28 01:34:52;;;;;;;14.48;7.72;;;;;;;-0.19;86.93;97451.50;5033367;28;20493;-60
2023/10/28 01:37:18;;;;;;;15.57;7.75;;;;;;;-0.14;86.75;97449.06;5033454;28;20091;-59
2023/10/28 01:39:51;;;;;;;14.65;8.13;;;;;;;-0.19;86.75;97453.31;5033271;28;20038;-60
2023/10/28 01:42:19;;;;;;;15.43;7.68;;;;;;;-0.18;86.87;97452.28;5031949;28;20037;-58
2023/10/28 01:44:46;;;;;;;35.30;8.25;;;;;;;-0.22;86.89;97444.13;5032303;28;20073;-60
2023/10/28 01:47:13;;;;;;;13.48;8.02;;;;;;;-0.25;87.06;97445.34;5033359;28;20041;-60
2023/10/28 01:49:39;;;;;;;18.70;8.57;;;;;;;-0.21;87.23;97445.72;5032075;28;20132;-58
2023/10/28 01:52:08;;;;;;;14.90;8.48;;;;;;;-0.24;86.90;97446.97;5031608;28;20132;-60
2023/10/28 01:54:35;;;;;;;19.30;8.43;;;;;;;-0.22;87.45;97449.34;5033487;28;20056;-59
2023/10/28 01:57:06;;;;;;;15.57;7.70;;;;;;;-0.35;87.50;97447.66;5031737;28;20049;-60
2023/10/28 01:59:33;;;;;;;16.75;8.88;;;;;;;-0.27;87.88;97439.56;5031980;28;20041;-59
2023/10/28 02:02:02;;;;;;;27.58;8.55;;;;;;;-0.23;87.34;97437.34;5031459;28;20045;-59
2023/10/28 02:04:30;;;;;;;16.42;8.68;;;;;;;-0.25;87.25;97439.34;5033256;28;20398;-59
2023/10/28 02:06:57;;;;;;;20.02;9.35;;;;;;;-0.23;87.68;97434.75;5031861;28;20414;-59
2023/10/28 02:09:26;;;;;;;17.98;8.95;;;;;;;-0.21;87.01;97437.09;5015172;28;20136;-59
2023/10/28 02:11:53;;;;;;;15.65;9.63;;;;;;;-0.17;87.52;97418.25;5032566;28;20041;-59
2023/10/28 02:14:20;;;;;;;18.13;8.57;;;;;;;-0.10;87.33;97425.97;5031727;28;20311;-57
2023/10/28 02:16:46;;;;;;;16.55;7.82;;;;;;;-0.13;87.07;97416.00;5014207;28;20041;-60
2023/10/28 02:19:12;;;;;;;16.27;8.60;;;;;;;-0.17;86.93;97420.06;5032376;28;20068;-58
2023/10/28 02:21:38;;;;;;;18.65;8.57;;;;;;;-0.20;87.16;97413.47;5048049;28;20037;-58
2023/10/28 02:24:04;;;;;;;14.38;8.18;;;;;;;-0.22;87.56;97407.69;5031406;28;20041;-59
2023/10/28 02:26:30;;;;;;;19.10;8.65;;;;;;;-0.24;87.52;97410.50;5031196;28;20041;-58
2023/10/28 02:28:56;;;;;;;14.10;8.18;;;;;;;-0.34;87.59;97412.81;5025320;28;20048;-61
2023/10/28 02:31:22;;;;;;;11.93;6.90;;;;;;;-0.36;87.94;97409.59;5019984;28;20041;-61
2023/10/28 02:33:47;;;;;;;14.45;7.82;;;;;;;-0.39;87.68;97407.44;5021820;28;20050;-59
2023/10/28 02:36:13;;;;;;;12.93;7.65;;;;;;;-0.30;87.96;97406.13;5020067;28;20045;-60
2023/10/28 02:38:40;;;;;;;17.63;7.38;;;;;;;-0.25;87.82;97401.09;5022022;28;20046;-59
2023/10/28 02:41:06;;;;;;;15.25;8.40;;;;;;;-0.25;87.81;97392.47;5022601;28;20046;-59
2023/10/28 02:43:38;;;;;;;15.65;7.53;;;;;;;-0.39;88.10;97383.22;5006400;28;20076;-59
2023/10/28 02:46:05;;;;;;;15.43;7.35;;;;;;;-0.36;87.63;97380.97;5013580;28;20038;-60
2023/10/28 02:48:31;;;;;;;16.25;7.97;;;;;;;-0.28;88.27;97392.91;4994977;28;20084;-60
2023/10/28 02:51:04;;;;;;;14.07;7.80;;;;;;;-0.24;87.58;97386.25;5012357;28;20042;-60
2023/10/28 02:53:30;;;;;;;15.45;8.45;;;;;;;-0.13;87.39;97384.75;5012583;28;20054;-58
2023/10/28 02:55:56;;;;;;;15.82;7.97;;;;;;;-0.17;86.89;97389.59;5010882;28;20507;-58
2023/10/28 02:58:22;;;;;;;13.93;7.30;;;;;;;-0.28;87.80;97388.50;5012274;28;20076;-60
2023/10/28 03:00:48;;;;;;;14.88;8.32;;;;;;;-0.29;88.32;97378.31;5011129;28;20055;-60
2023/10/28 03:03:14;;;;;;;16.70;7.88;;;;;;;-0.26;87.75;97386.50;4994522;28;20045;-59
2023/10/28 03:05:40;;;;;;;15.90;8.18;;;;;;;-0.23;87.73;97377.44;5012275;28;20048;-61
2023/10/28 03:08:06;;;;;;;14.90;8.15;;;;;;;-0.20;87.95;97371.81;4994291;28;20525;-58
2023/10/28 03:10:31;;;;;;;15.15;7.65;;;;;;;-0.09;88.21;97375.47;5011008;28;20042;-60
2023/10/28 03:12:57;;;;;;;14.52;7.97;;;;;;;-0.15;87.56;97371.13;5011909;28;20045;-59
2023/10/28 03:15:24;;;;;;;15.10;8.23;;;;;;;-0.14;87.39;97376.16;5010895;28;20049;-60
2023/10/28 03:17:50;;;;;;;16.08;8.27;;;;;;;-0.18;87.64;97363.75;5011544;28;20216;-60
2023/10/28 03:20:19;;;;;;;13.82;7.68;;;;;;;-0.19;87.68;97359.56;5011937;28;20132;-59
2023/10/28 03:22:45;;;;;;;20.70;7.75;;;;;;;-0.21;87.74;97362.38;5011645;28;20049;-57
2023/10/28 03:25:11;;;;;;;19.73;7.40;;;;;;;-0.23;88.14;97354.03;5010573;28;20052;-59
2023/10/28 03:27:36;;;;;;;13.80;7.30;;;;;;;-0.23;88.50;97351.41;5010750;28;20086;-59
2023/10/28 03:30:02;;;;;;;21.63;8.60;;;;;;;-0.25;88.45;97351.63;5011357;28;20064;-59
2023/10/28 03:32:32;;;;;;;15.75;8.20;;;;;;;-0.24;88.31;97340.22;5011637;28;20063;-59
2023/10/28 03:34:57;;;;;;;26.25;7.50;;;;;;;-0.20;88.47;97340.56;5010319;28;20499;-57
2023/10/28 03:37:23;;;;;;;15.23;7.45;;;;;;;-0.21;88.08;97338.94;5010309;28;20050;-59
2023/10/28 03:39:49;;;;;;;14.13;8.10;;;;;;;-0.24;88.92;97328.97;5011766;28;20169;-59
2023/10/28 03:42:16;;;;;;;18.40;8.13;;;;;;;-0.19;88.58;97325.72;5015501;28;20082;-59
2023/10/28 03:44:41;;;;;;;17.48;8.60;;;;;;;-0.13;89.07;97320.44;5031184;28;20045;-58
2023/10/28 03:47:07;;;;;;;29.23;8.20;;;;;;;-0.11;88.49;97313.19;5030249;28;20099;-61
2023/10/28 03:49:33;;;;;;;20.98;7.53;;;;;;;-0.05;88.02;97320.13;5031580;28;20053;-59
2023/10/28 03:51:59;;;;;;;15.45;7.75;;;;;;;-0.08;87.87;97320.56;5031447;28;20042;-60
2023/10/28 03:54:25;;;;;;;13.05;7.30;;;;;;;-0.11;88.31;97321.00;5031364;28;20069;-60
2023/10/28 03:56:51;;;;;;;13.68;7.43;;;;;;;-0.07;88.61;97329.19;5031381;28;20088;-61
2023/10/28 03:59:16;;;;;;;14.82;8.23;;;;;;;0.01;88.68;97328.88;5031655;28;20331;-59
2023/10/28 04:01:42;;;;;;;13.27;7.78;;;;;;;0.08;87.61;97336.59;5029995;28;20041;-60
2023/10/28 04:04:08;;;;;;;17.77;9.02;;;;;;;0.03;87.82;97334.69;5031247;28;20449;-60
2023/10/28 04:06:33;;;;;;;16.00;9.85;;;;;;;0.03;87.60;97319.03;5031281;28;20115;-60
2023/10/28 04:08:59;;;;;;;16.70;8.35;;;;;;;-0.03;88.34;97312.09;5030938;28;20042;-60
2023/10/28 04:11:25;;;;;;;11.95;7.30;;;;;;;-0.04;88.06;97315.72;5030907;28;20503;-61
2023/10/28 04:13:51;;;;;;;16.70;8.27;;;;;;;-0.07;87.97;97323.97;5030401;28;20141;-62
2023/10/28 04:16:17;;;;;;;12.52;7.55;;;;;;;0.00;88.03;97319.50;5031150;28;20037;-61
2023/10/28 04:18:43;;;;;;;13.95;7.65;;;;;;;0.08;88.50;97326.19;5030783;28;20144;-65
2023/10/28 04:21:11;;;;;;;13.85;7.50;;;;;;;0.05;87.84;97324.81;5029640;28;20494;-58
2023/10/28 04:23:38;;;;;;;14.43;7.65;;;;;;;0.11;88.13;97320.53;4980656;28;20045;-60
2023/10/28 04:26:05;;;;;;;15.10;7.93;;;;;;;0.14;88.25;97315.66;5019884;28;20548;-63
2023/10/28 04:28:30;;;;;;;13.15;7.47;;;;;;;0.13;87.54;97314.09;5020733;28;20049;-62
2023/10/28 04:30:57;;;;;;;15.90;7.63;;;;;;;0.12;87.41;97312.50;5019896;28;20037;-62
2023/10/28 04:33:24;;;;;;;14.50;7.68;;;;;;;0.14;87.59;97305.25;5021517;28;20038;-61
2023/10/28 04:35:52;;;;;;;11.02;7.07;;;;;;;0.10;87.34;97301.50;5020579;28;20050;-62
2023/10/28 04:38:21;;;;;;;16.65;7.47;;;;;;;0.12;87.66;97307.31;5019298;28;20045;-61
2023/10/28 04:40:49;;;;;;;11.05;6.95;;;;;;;0.14;87.36;97297.44;5022468;28;20033;-62
2023/10/28 04:43:14;;;;;;;16.20;8.35;;;;;;;0.15;87.57;97299.03;5026108;28;20033;-61
2023/10/28 04:45:44;;;;;;;18.40;7.78;;;;;;;0.17;87.72;97291.78;5022927;28;20618;-62
2023/10/28 04:48:15;;;;;;;14.70;7.80;;;;;;;0.18;87.15;97295.22;5024138;28;20038;-60
2023/10/28 04:50:41;;;;;;;14.23;7.20;;;;;;;0.15;87.22;97293.84;5023719;28;20072;-62
2023/10/28 04:53:08;;;;;;;14.70;7.75;;;;;;;0.16;86.92;97292.00;5023718;28;20040;-61
2023/10/28 04:55:34;;;;;;;13.88;7.68;;;;;;;0.14;87.35;97286.22;5023278;28;20045;-63
2023/10/28 04:58:00;;;;;;;15.07;7.35;;;;;;;0.17;87.51;97275.34;5024942;28;20406;-60
2023/10/28 05:00:26;;;;;;;17.38;7.70;;;;;;;0.15;87.60;97275.59;5021666;28;20045;-62
2023/10/28 05:02:52;;;;;;;16.55;8.40;;;;;;;0.12;87.81;97267.41;5023533;28;20045;-60
2023/10/28 05:05:18;;;;;;;12.45;7.28;;;;;;;0.12;87.68;97270.84;5024713;28;20048;-62
2023/10/28 05:07:43;;;;;;;15.07;7.25;;;;;;;0.13;87.36;97258.59;5030812;28;20145;-60
2023/10/28 05:10:09;;;;;;;17.75;8.38;;;;;;;0.12;87.57;97260.41;5026209;28;20590;-62
2023/10/28 05:12:38;;;;;;;13.52;7.35;;;;;;;0.16;87.19;97263.34;5032547;28;20053;-61
2023/10/28 05:15:06;;;;;;;12.73;6.45;;;;;;;0.03;87.63;97260.94;5031810;28;20591;-62
2023/10/28 05:17:32;;;;;;;15.05;8.45;;;;;;;0.02;87.66;97264.56;5033474;28;20061;-62
2023/10/28 05:19:58;;;;;;;17.83;8.10;;;;;;;0.04;87.67;97252.91;5033328;28;20037;-62
2023/10/28 05:22:24;;;;;;;18.45;7.10;;;;;;;-0.01;88.34;97257.97;5033270;28;20418;-61
2023/10/28 05:24:52;;;;;;;13.75;7.90;;;;;;;0.04;88.60;97255.50;5033006;28;20038;-61
2023/10/28 05:27:18;;;;;;;20.65;9.30;;;;;;;0.01;88.16;97244.75;5032042;28;20041;-61
2023/10/28 05:29:44;;;;;;;13.50;7.82;;;;;;;0.12;88.13;97246.56;5033306;28;20457;-62
2023/10/28 05:32:10;;;;;;;11.93;6.93;;;;;;;0.05;88.56;97244.06;5033225;28;20038;-62
2023/10/28 05:34:36;;;;;;;13.63;7.82;;;;;;;0.14;88.35;97244.53;5033213;28;20570;-62
2023/10/28 05:37:02;;;;;;;16.48;8.32;;;;;;;0.16;88.25;97245.91;5031802;28;20124;-61
2023/10/28 05:39:28;;;;;;;15.07;6.88;;;;;;;0.15;87.81;97233.91;5033465;28;20411;-61
2023/10/28 05:41:54;;;;;;;14.73;7.43;;;;;;;0.19;87.64;97234.25;5031821;28;20037;-63
2023/10/28 05:44:20;;;;;;;12.68;6.63;;;;;;;0.20;87.34;97239.22;5033149;28;20096;-61
2023/10/28 05:46:45;;;;;;;13.05;7.50;;;;;;;0.29;87.74;97233.69;5033158;28;20042;-63
2023/10/28 05:49:12;;;;;;;12.93;7.60;;;;;;;0.26;87.38;97231.53;5033295;28;20057;-62
2023/10/28 05:51:39;;;;;;;12.68;7.53;;;;;;;0.21;87.37;97237.44;5032173;28;20041;-63
2023/10/28 05:54:04;;;;;;;16.38;7.50;;;;;;;0.17;88.19;97231.84;5033103;28;20049;-61
2023/10/28 05:56:30;;;;;;;16.85;7.70;;;;;;;0.16;87.95;97224.28;5032409;28;20053;-63
2023/10/28 05:58:58;;;;;;;15.07;7.95;;;;;;;0.25;88.00;97222.94;5022250;28;20041;-62
2023/10/28 06:01:24;;;;;;;16.65;7.90;;;;;;;0.33;87.51;97232.25;5032693;28;20042;-57
2023/10/28 06:03:50;;;;;;;11.15;6.05;;;;;;;0.34;86.77;97218.97;5031587;28;20053;-59
2023/10/28 06:06:16;;;;;;;13.07;6.65;;;;;;;0.34;86.50;97215.59;5032684;28;20087;-60
2023/10/28 06:08:42;;;;;;;16.42;8.65;;;;;;;0.34;87.05;97212.97;5031557;28;20052;-57
2023/10/28 06:11:09;;;;;;;16.02;8.85;;;;;;;0.31;87.10;97210.81;5032912;28;20041;-59
2023/10/28 06:13:38;;;;;;;15.63;7.50;;;;;;;0.35;87.43;97204.91;5033001;28;20081;-57
2023/10/28 06:16:04;;;;;;;12.48;7.10;;;;;;;0.36;86.85;97205.72;5032397;28;20045;-59
2023/10/28 06:18:29;;;;;;;12.68;6.93;;;;;;;0.31;86.60;97206.41;5032186;28;20057;-58
2023/10/28 06:20:55;;;;;;;16.00;7.90;;;;;;;0.30;86.81;97198.81;5032630;28;20048;-57
2023/10/28 06:23:21;;;;;;;14.75;8.35;;;;;;;0.38;87.26;97214.09;5032723;28;20479;-59
2023/10/28 06:25:47;;;;;;;15.80;8.30;;;;;;;0.29;86.84;97202.44;5031311;28;20047;-59
2023/10/28 06:28:12;;;;;;;13.75;7.60;;;;;;;0.29;87.32;97205.03;5032425;28;20075;-55
2023/10/28 06:30:48;;;;;;;17.90;7.38;;;;;;;0.37;86.72;97208.09;5030914;28;20111;-60
2023/10/28 06:33:14;;;;;;;14.23;7.38;;;;;;;0.38;86.81;97201.88;5021937;28;20044;-60
2023/10/28 06:35:40;;;;;;;12.27;6.68;;;;;;;0.30;86.71;97204.81;5022623;28;20045;-60
2023/10/28 06:38:08;;;;;;;13.70;7.57;;;;;;;0.39;87.00;97202.69;5021234;28;20191;-58
2023/10/28 06:40:37;;;;;;;25.58;7.90;;;;;;;0.47;86.60;97201.53;5020682;28;20041;-59
2023/10/28 06:43:04;;;;;;;15.85;7.32;;;;;;;0.49;85.94;97202.91;5024147;28;20132;-63
2023/10/28 06:45:30;;;;;;;11.10;5.85;;;;;;;0.47;85.49;97194.50;5012284;28;20128;-60
2023/10/28 06:47:55;;;;;;;12.63;6.90;;;;;;;0.46;86.47;97203.34;5012236;28;20197;-61
2023/10/28 06:50:21;;;;;;;12.95;7.00;;;;;;;0.51;86.01;97194.88;5012519;28;20415;-61
2023/10/28 06:52:48;;;;;;;14.15;7.25;;;;;;;0.59;86.04;97197.94;5012314;28;20046;-63
2023/10/28 06:55:14;;;;;;;12.43;6.47;;;;;;;0.62;85.88;97196.69;5012190;28;20128;-61
2023/10/28 06:57:41;;;;;;;11.85;6.75;;;;;;;0.58;85.89;97192.94;5010920;28;20060;-58
2023/10/28 07:00:13;;;;;;;11.85;7.05;;;;;;;0.58;85.83;97187.72;5012293;28;20047;-61
2023/10/28 07:02:40;;;;;;;15.85;8.18;;;;;;;0.58;85.35;97185.91;5012161;28;20073;-59
2023/10/28 07:05:08;;;;;;;9.48;6.00;;;;;;;0.55;85.88;97182.97;5011064;28;20499;-60
2023/10/28 07:07:35;;;;;;;15.75;7.63;;;;;;;0.57;86.00;97176.50;5011212;28;20056;-59
2023/10/28 07:10:01;;;;;;;14.65;7.53;;;;;;;0.59;85.82;97173.66;5011326;28;20041;-60
2023/10/28 07:12:28;;;;;;;11.10;6.95;;;;;;;0.60;85.08;97172.66;5010933;28;20136;-59
2023/10/28 07:14:55;;;;;;;13.45;7.15;;;;;;;0.72;85.31;97168.22;5011514;28;20499;-60
2023/10/28 07:17:22;;;;;;;12.80;6.93;;;;;;;0.73;84.59;97167.19;5011173;28;20400;-58
2023/10/28 07:19:50;;;;;;;10.15;6.20;;;;;;;0.77;84.66;97159.72;5011613;28;20049;-60
2023/10/28 07:22:22;;;;;;;10.93;6.60;;;;;;;0.79;84.57;97162.88;4994052;28;20096;-59
2023/10/28 07:24:49;;;;;;;11.45;6.63;;;;;;;0.90;84.13;97162.06;5011664;28;20096;-58
2023/10/28 07:27:15;;;;;;;10.45;6.78;;;;;;;0.96;84.09;97155.94;5011722;28;20120;-59
2023/10/28 07:29:41;;;;;;;9.30;5.78;;;;;;;0.91;84.06;97166.25;5018253;28;20041;-60
2023/10/28 07:32:09;;;;;;;10.45;6.25;;;;;;;0.89;83.81;97161.28;5020583;28;20036;-60
2023/10/28 07:34:35;;;;;;;15.85;7.35;;;;;;;0.83;83.99;97158.81;5020689;28;20049;-60
2023/10/28 07:37:03;;;;;;;22.13;8.75;;;;;;;0.89;84.15;97155.28;5022004;28;20049;-59
2023/10/28 07:39:29;;;;;;;11.77;6.65;;;;;;;0.97;83.36;97154.09;5021709;28;20046;-59
2023/10/28 07:41:56;;;;;;;11.60;7.25;;;;;;;0.99;83.47;97149.47;5021681;28;20447;-60
2023/10/28 07:44:22;;;;;;;12.60;6.63;;;;;;;0.99;83.32;97150.25;5021553;28;20053;-60
2023/10/28 07:46:48;;;;;;;11.68;6.15;;;;;;;0.99;83.46;97139.03;5019776;28;20044;-60
2023/10/28 07:49:14;;;;;;;14.30;6.07;;;;;;;1.07;83.72;97136.84;5019989;28;20095;-60
2023/10/28 07:51:39;;;;;;;10.65;6.63;;;;;;;1.07;83.17;97141.28;5018366;28;20140;-62
2023/10/28 07:54:06;;;;;;;14.90;8.50;;;;;;;1.22;83.15;97138.16;5022079;28;20045;-60
2023/10/28 07:56:32;;;;;;;9.80;6.80;;;;;;;1.31;83.01;97136.78;5020648;28;20057;-60
2023/10/28 07:58:59;;;;;;;12.30;7.22;;;;;;;1.40;82.70;97143.19;5020439;28;20075;-61
2023/10/28 08:01:29;;;;;;;17.70;8.65;;;;;;;1.49;82.49;97144.41;5019907;28;20522;-61
2023/10/28 08:03:56;;;;;;;20.42;9.32;;;;;;;1.61;82.45;97140.97;5031169;28;20049;-61
2023/10/28 08:06:23;;;;;;;21.65;11.93;;;;;;;1.70;81.97;97148.16;5031161;28;20073;-60
2023/10/28 08:08:49;;;;;;;18.73;10.10;;;;;;;1.72;82.07;97147.94;5031184;28;20526;-61
2023/10/28 08:11:16;;;;;;;14.43;8.75;;;;;;;1.71;81.81;97154.22;5031304;28;20455;-61
2023/10/28 08:13:42;;;;;;;14.82;9.00;;;;;;;1.69;81.63;97158.88;5031233;28;20120;-60
2023/10/28 08:16:09;;;;;;;17.05;10.30;;;;;;;1.68;82.11;97154.69;5027137;28;20298;-62
2023/10/28 08:18:40;;;;;;;18.85;9.20;;;;;;;1.60;82.27;97145.41;5026083;28;20053;-61
2023/10/28 08:21:07;;;;;;;18.27;9.30;;;;;;;1.58;82.36;97150.84;5034927;28;20057;-57
2023/10/28 08:23:33;;;;;;;15.40;8.60;;;;;;;1.55;82.31;97145.28;5034873;28;20047;-60
2023/10/28 08:25:59;;;;;;;14.60;9.88;;;;;;;1.50;83.12;97140.78;5034199;28;20132;-67
2023/10/28 08:28:27;;;;;;;19.67;8.70;;;;;;;1.36;83.36;97134.25;5034700;28;20053;-62
2023/10/28 08:30:54;;;;;;;18.15;8.90;;;;;;;1.28;83.65;97138.03;5033962;28;20044;-63
2023/10/28 08:33:20;;;;;;;13.77;9.23;;;;;;;1.29;83.74;97123.16;5034260;28;20072;-63
2023/10/28 08:53:40;;;;;;;16.95;8.75;;;;;;;1.64;81.90;97096.88;5088457;27;20385;-60
2023/10/28 08:56:06;;;;;;;15.23;9.20;;;;;;;1.61;82.30;97099.97;5070957;28;20551;-58
2023/10/28 08:58:32;;;;;;;15.20;8.90;;;;;;;1.72;81.94;97099.09;5087962;28;20172;-59
2023/10/28 09:01:01;;;;;;;16.67;9.45;;;;;;;1.68;82.22;97094.63;5087122;28;20505;-62
2023/10/28 09:03:28;;;;;;;15.57;10.15;;;;;;;1.73;82.47;97092.84;5086024;28;20123;-59
2023/10/28 09:05:54;;;;;;;17.58;9.38;;;;;;;1.75;82.58;97085.59;5087190;28;20049;-60
2023/10/28 09:08:20;;;;;;;11.13;6.78;;;;;;;1.65;82.15;97076.78;5088600;28;20068;-57
2023/10/28 09:10:46;;;;;;;17.92;9.00;;;;;;;1.55;82.93;97082.63;5084290;28;20032;-59
2023/10/28 09:13:13;;;;;;;15.18;9.05;;;;;;;1.52;83.04;97070.84;5078015;28;20115;-57
2023/10/28 09:15:39;;;;;;;18.75;9.80;;;;;;;1.42;83.62;97075.91;5076763;28;20119;-59
2023/10/28 09:18:05;;;;;;;16.67;8.68;;;;;;;1.47;83.97;97075.19;5078740;28;20132;-60
2023/10/28 09:20:31;;;;;;;8.98;6.70;;;;;;;1.44;83.79;97063.41;5075388;28;20119;-60
2023/10/28 09:22:56;;;;;;;14.50;8.23;;;;;;;1.31;83.80;97042.81;5068538;28;20506;-63
2023/10/28 09:25:22;;;;;;;14.98;8.07;;;;;;;1.31;84.29;97061.09;5067869;28;20068;-61
2023/10/28 09:27:48;;;;;;;17.33;8.55;;;;;;;1.23;85.24;97054.41;5068087;28;20095;-60
2023/10/28 09:30:21;;;;;;;9.95;6.40;;;;;;;1.29;85.61;97050.84;5068063;28;20064;-62
2023/10/28 09:32:48;;;;;;;13.00;7.95;;;;;;;1.28;85.51;97051.13;5067162;28;20472;-58
2023/10/28 09:35:14;;;;;;;12.60;7.82;;;;;;;1.41;86.29;97044.78;5066633;28;20041;-60
2023/10/28 09:37:40;;;;;;;12.50;7.63;;;;;;;1.48;84.29;97037.63;5067814;28;20109;-59
2023/10/28 09:40:08;;;;;;;9.63;6.43;;;;;;;1.36;84.84;97035.06;5067673;28;20048;-61
2023/10/28 09:42:35;;;;;;;11.15;5.90;;;;;;;1.28;85.13;97035.44;5071299;28;20102;-61
2023/10/28 09:45:04;;;;;;;13.18;6.63;;;;;;;1.26;85.11;97035.66;5087950;28;20039;-61
2023/10/28 09:47:41;;;;;;;11.45;7.15;;;;;;;1.26;85.92;97020.00;5088062;28;20094;-60
2023/10/28 09:50:07;;;;;;;13.98;7.13;;;;;;;1.26;85.45;97037.50;5086652;28;20600;-60
2023/10/28 09:52:36;;;;;;;10.35;7.20;;;;;;;1.29;85.80;97029.97;5084415;28;20471;-61
2023/10/28 09:55:11;;;;;;;11.05;7.18;;;;;;;1.27;85.41;97020.84;5073966;28;20048;-61
2023/10/28 09:57:37;;;;;;;8.20;5.72;;;;;;;1.12;85.94;97013.53;5074203;28;20512;-61
2023/10/28 10:00:09;;;;;;;6.85;5.53;;;;;;;1.04;86.58;97019.91;5074295;28;20052;-61
2023/10/28 10:02:54;;;;;;;15.85;5.85;;;;;;;1.13;86.66;97010.66;5072559;28;20083;-62
2023/10/28 10:05:36;;;;;;;11.30;6.53;;;;;;;1.21;86.24;97006.13;5072716;28;20032;-61
2023/10/28 10:08:02;;;;;;;8.93;5.18;;;;;;;1.22;86.47;97007.69;5074084;28;20041;-61
2023/10/28 10:10:28;;;;;;;7.72;5.45;;;;;;;1.16;86.49;97001.59;5074021;28;20040;-59
2023/10/28 10:13:03;;;;;;;9.57;5.85;;;;;;;1.20;87.22;97005.28;5074146;28;20490;-62
2023/10/28 10:15:32;;;;;;;9.90;5.82;;;;;;;1.22;86.91;96999.84;5073187;28;20044;-59
2023/10/28 10:18:10;;;;;;;10.25;6.28;;;;;;;1.31;86.32;96998.44;5075766;28;20098;-62
2023/10/28 10:20:36;;;;;;;8.50;5.68;;;;;;;1.27;86.63;96992.91;5073357;28;20041;-63
2023/10/28 10:23:03;;;;;;;10.50;6.55;;;;;;;1.31;86.88;96988.00;5074262;28;20049;-62
2023/10/28 10:25:46;;;;;;;8.48;4.55;;;;;;;1.36;86.14;96988.88;5073610;28;20083;-62
2023/10/28 10:28:19;;;;;;;6.65;4.90;;;;;;;1.25;85.79;96988.94;5072622;28;20051;-60
2023/10/28 10:30:45;;;;;;;8.27;5.55;;;;;;;1.19;86.83;96997.72;5073314;28;20048;-61
2023/10/28 10:33:12;;;;;;;8.77;5.35;;;;;;;1.11;87.00;96991.06;5071445;28;20424;-62
2023/10/28 10:35:38;;;;;;;6.93;5.30;;;;;;;1.11;87.97;96991.06;5073300;28;20052;-60
2023/10/28 10:38:06;;;;;;;7.82;5.25;;;;;;;1.12;87.71;96987.44;5072993;28;20135;-61
2023/10/28 10:40:34;;;;;;;7.30;5.03;;;;;;;1.02;88.08;96984.63;5073405;28;20055;-62
2023/10/28 10:43:05;;;;;;;10.05;5.40;;;;;;;1.00;88.31;96984.06;5070225;28;20466;-61
2023/10/28 10:45:32;;;;;;;9.70;5.30;;;;;;;0.96;88.44;96990.81;5061853;28;20032;-61
2023/10/28 10:47:58;;;;;;;6.65;4.75;;;;;;;0.99;88.28;96985.91;5062377;28;20486;-61
2023/10/28 10:50:26;;;;;;;12.95;5.32;;;;;;;0.98;88.96;96976.50;5060911;28;20577;-64
2023/10/28 10:52:52;;;;;;;7.03;4.72;;;;;;;0.99;88.04;96978.06;5060917;28;20084;-61
2023/10/28 10:55:22;;;;;;;9.00;5.25;;;;;;;0.93;88.54;96975.63;5060126;28;20029;-61
2023/10/28 10:57:48;;;;;;;;;;;;;;;0.98;88.18;96963.47;5063700;28;20120;-62
2023/10/28 11:00:14;;;;;;;6.03;4.18;;;;;;;0.92;87.96;96971.44;5069954;28;20026;-62
2023/10/28 11:02:40;;;;;;;7.65;5.07;;;;;;;0.89;88.29;96957.81;5070691;28;20051;-61
2023/10/28 11:05:08;;;;;;;7.78;4.20;;;;;;;0.90;88.12;96966.44;5062537;28;20044;-61
2023/10/28 11:07:34;;;;;;;7.95;4.55;;;;;;;0.86;88.76;96952.28;5061735;28;20043;-61
2023/10/28 11:10:04;;;;;;;7.10;4.85;;;;;;;0.83;88.26;96943.13;5061888;28;20078;-63
2023/10/28 11:12:31;;;;;;;8.73;4.85;;;;;;;0.84;88.35;96943.91;5056486;28;20127;-60
2023/10/28 11:14:56;;;;;;;10.63;6.78;;;;;;;0.92;89.02;96940.13;5061610;28;20499;-60
2023/10/28 11:17:23;;;;;;;8.48;4.90;;;;;;;0.92;88.20;96938.31;5059934;28;20491;-61
2023/10/28 11:19:50;;;;;;;8.82;4.32;;;;;;;0.93;88.07;96926.84;5062634;28;20094;-59
2023/10/28 11:22:16;;;;;;;6.68;4.53;;;;;;;0.89;88.30;96926.53;5060019;28;20494;-61
2023/10/28 11:24:42;;;;;;;7.68;3.97;;;;;;;0.93;88.30;96916.41;5061107;28;20063;-62
2023/10/28 11:27:08;;;;;;;7.25;4.82;;;;;;;0.92;88.50;96914.84;5062343;28;20079;-62
2023/10/28 11:29:38;;;;;;;8.57;5.55;;;;;;;0.97;88.22;96906.28;5056348;28;20036;-59
2023/10/28 11:32:06;;;;;;;6.88;3.72;;;;;;;0.92;87.94;96917.44;5057265;28;20120;-63
2023/10/28 11:34:38;;;;;;;9.60;4.25;;;;;;;0.99;87.85;96906.84;5060739;28;20499;-62
2023/10/28 11:37:12;;;;;;;6.95;4.45;;;;;;;0.99;88.26;96907.63;5060741;28;20043;-62
2023/10/28 11:39:39;;;;;;;7.35;4.38;;;;;;;1.00;88.13;96917.06;5076809;28;20545;-64
2023/10/28 11:42:12;;;;;;;5.68;3.83;;;;;;;1.02;87.36;96914.22;5059323;28;20126;-63
2023/10/28 11:44:39;;;;;;;11.50;5.78;;;;;;;1.04;87.62;96920.00;5060406;28;20048;-61
2023/10/28 11:47:05;;;;;;;7.43;4.22;;;;;;;0.94;87.75;96922.41;5061838;28;20169;-60
2023/10/28 11:49:31;;;;;;;11.40;6.00;;;;;;;0.94;88.49;96923.19;5068526;28;20048;-60